createdAt,value
2023-02-12T00:01:21.281Z,14.77
2023-02-12T00:03:48.612Z,15.27
2023-02-12T00:06:16.118Z,13.77
2023-02-12T00:08:43.801Z,13.70
2023-02-12T00:11:17.623Z,14.93
2023-02-12T00:13:44.858Z,17.13
2023-02-12T00:16:16.291Z,19.30
2023-02-12T00:18:44.543Z,14.60
2023-02-12T00:21:13.776Z,17.83
2023-02-12T00:23:41.311Z,15.83
2023-02-12T00:26:10.974Z,17.13
2023-02-12T00:28:38.688Z,15.53
2023-02-12T00:31:13.385Z,14.37
2023-02-12T00:33:40.713Z,18.47
2023-02-12T00:36:09.351Z,14.60
2023-02-12T00:38:36.320Z,15.77
2023-02-12T00:41:03.169Z,17.77
2023-02-12T00:43:29.916Z,18.97
2023-02-12T00:45:57.075Z,16.97
2023-02-12T00:48:24.165Z,17.00
2023-02-12T00:50:51.159Z,16.57
2023-02-12T00:53:17.974Z,16.33
2023-02-12T00:55:44.664Z,17.40
2023-02-12T00:58:12.074Z,18.90
2023-02-12T01:00:38.950Z,13.13
2023-02-12T01:03:06.013Z,14.97
2023-02-12T01:05:33.170Z,14.80
2023-02-12T01:08:00.494Z,14.13
2023-02-12T01:10:27.922Z,14.40
2023-02-12T01:12:54.951Z,12.73
2023-02-12T01:15:22.224Z,13.17
2023-02-12T01:17:53.110Z,14.57
2023-02-12T01:20:23.153Z,15.30
2023-02-12T01:22:50.789Z,13.43
2023-02-12T01:25:20.648Z,14.27
2023-02-12T01:27:48.232Z,12.90
2023-02-12T01:30:16.232Z,13.20
2023-02-12T01:32:43.935Z,14.43
2023-02-12T01:35:10.776Z,15.63
2023-02-12T01:37:38.571Z,16.57
2023-02-12T01:40:08.052Z,14.47
2023-02-12T01:42:35.115Z,14.40
2023-02-12T01:45:14.019Z,13.57
2023-02-12T01:47:43.983Z,15.27
2023-02-12T01:50:19.066Z,16.60
2023-02-12T01:52:55.994Z,16.27
2023-02-12T01:55:23.460Z,13.43
2023-02-12T01:57:50.759Z,16.43
2023-02-12T02:00:22.995Z,14.87
2023-02-12T02:02:56.833Z,15.67
2023-02-12T02:05:38.918Z,13.90
2023-02-12T02:08:06.056Z,12.67
2023-02-12T02:10:32.782Z,12.77
2023-02-12T02:13:18.577Z,14.27
2023-02-12T02:15:51.135Z,13.40
2023-02-12T02:18:31.271Z,15.27
2023-02-12T02:21:23.631Z,14.27
2023-02-12T02:24:29.456Z,13.73
2023-02-12T02:27:14.792Z,12.37
2023-02-12T02:29:46.745Z,13.83
2023-02-12T02:32:32.242Z,13.87
2023-02-12T02:35:13.117Z,16.67
2023-02-12T02:37:51.374Z,14.77
2023-02-12T02:40:25.163Z,13.47
2023-02-12T02:43:09.788Z,12.17
2023-02-12T02:45:55.863Z,16.07
2023-02-12T02:48:40.699Z,12.70
2023-02-12T02:51:18.167Z,14.87
2023-02-12T02:53:58.318Z,14.40
2023-02-12T02:56:27.453Z,14.30
2023-02-12T02:59:06.102Z,12.37
2023-02-12T03:02:06.648Z,14.07
2023-02-12T03:04:42.933Z,14.87
2023-02-12T03:07:35.513Z,16.00
2023-02-12T03:10:20.285Z,12.07
2023-02-12T03:13:01.123Z,13.40
2023-02-12T03:15:54.658Z,13.20
2023-02-12T03:18:28.128Z,14.23
2023-02-12T03:21:05.563Z,15.07
2023-02-12T03:24:01.462Z,14.13
2023-02-12T03:26:49.230Z,15.30
2023-02-12T03:29:16.092Z,14.10
2023-02-12T03:32:27.670Z,14.27
2023-02-12T03:35:20.702Z,12.40
2023-02-12T03:38:33.787Z,13.00
2023-02-12T03:41:08.291Z,12.67
2023-02-12T03:44:00.017Z,13.90
2023-02-12T03:47:07.810Z,15.83
2023-02-12T03:49:47.607Z,14.50
2023-02-12T03:52:14.424Z,14.63
2023-02-12T03:54:41.360Z,13.90
2023-02-12T03:57:15.639Z,12.60
2023-02-12T03:59:44.282Z,12.67
2023-02-12T04:02:13.816Z,15.83
2023-02-12T04:04:40.941Z,12.93
2023-02-12T04:07:07.991Z,13.77
2023-02-12T04:09:34.742Z,14.90
2023-02-12T04:12:40.209Z,16.07
2023-02-12T04:15:41.613Z,11.87
2023-02-12T04:18:27.937Z,12.27
2023-02-12T04:21:25.357Z,13.53
2023-02-12T04:24:15.402Z,14.60
2023-02-12T04:27:01.432Z,11.77
2023-02-12T04:29:52.431Z,12.23
2023-02-12T04:32:39.919Z,16.77
2023-02-12T04:35:26.307Z,12.87
2023-02-12T04:38:05.897Z,12.87
2023-02-12T04:40:33.095Z,13.17
2023-02-12T04:42:59.940Z,12.50
2023-02-12T04:45:30.978Z,14.93
2023-02-12T04:47:57.808Z,10.63
2023-02-12T04:50:25.646Z,15.07
2023-02-12T04:52:52.632Z,13.23
2023-02-12T04:55:19.356Z,11.80
2023-02-12T04:57:46.108Z,13.80
2023-02-12T05:00:15.039Z,14.33
2023-02-12T05:02:42.030Z,12.20
2023-02-12T05:05:08.907Z,16.53
2023-02-12T05:07:35.618Z,15.87
2023-02-12T05:10:02.561Z,14.37
2023-02-12T05:12:29.282Z,13.40
2023-02-12T05:14:58.064Z,12.77
2023-02-12T05:17:25.355Z,13.93
2023-02-12T05:19:52.296Z,16.80
2023-02-12T05:22:19.103Z,16.93
2023-02-12T05:24:45.981Z,18.57
2023-02-12T05:27:12.954Z,15.97
2023-02-12T05:29:39.840Z,15.90
2023-02-12T05:32:07.081Z,13.87
2023-02-12T05:34:34.992Z,15.57
2023-02-12T05:37:01.740Z,15.67
2023-02-12T05:39:28.440Z,17.53
2023-02-12T05:41:55.216Z,16.20
2023-02-12T05:44:21.948Z,15.17
2023-02-12T05:46:48.771Z,14.10
2023-02-12T05:49:15.617Z,19.27
2023-02-12T05:51:42.449Z,16.93
2023-02-12T05:54:10.237Z,16.80
2023-02-12T05:56:46.788Z,17.40
2023-02-12T05:59:21.788Z,14.00
2023-02-12T06:01:51.580Z,18.50
2023-02-12T06:04:25.890Z,16.87
2023-02-12T06:06:54.329Z,16.10
2023-02-12T06:09:21.468Z,18.50
2023-02-12T06:11:48.577Z,19.50
2023-02-12T06:14:18.162Z,16.37
2023-02-12T06:16:50.848Z,17.17
2023-02-12T06:19:19.440Z,20.03
2023-02-12T06:21:46.276Z,15.57
2023-02-12T06:24:14.732Z,15.67
2023-02-12T06:26:41.648Z,19.80
2023-02-12T06:29:08.652Z,18.17
2023-02-12T06:31:37.155Z,20.00
2023-02-12T06:34:08.126Z,18.23
2023-02-12T06:36:39.858Z,17.10
2023-02-12T06:39:07.726Z,17.83
2023-02-12T06:41:34.899Z,17.73
2023-02-12T06:44:01.652Z,20.13
2023-02-12T06:46:28.430Z,18.13
2023-02-12T06:49:00.652Z,20.50
2023-02-12T06:51:29.366Z,21.43
2023-02-12T06:53:56.792Z,21.23
2023-02-12T06:56:26.812Z,22.90
2023-02-12T06:58:59.455Z,18.53
2023-02-12T07:01:28.828Z,26.97
2023-02-12T07:04:02.342Z,21.47
2023-02-12T07:06:35.992Z,22.00
2023-02-12T07:09:04.496Z,21.40
2023-02-12T07:11:37.968Z,20.43
2023-02-12T07:14:06.717Z,22.40
2023-02-12T07:16:36.325Z,22.83
2023-02-12T07:19:03.077Z,22.23
2023-02-12T07:21:29.850Z,20.47
2023-02-12T07:23:56.640Z,19.63
2023-02-12T07:26:23.832Z,19.63
2023-02-12T07:28:51.908Z,24.13
2023-02-12T07:31:23.955Z,23.20
2023-02-12T07:33:55.396Z,20.80
2023-02-12T07:36:23.878Z,23.67
2023-02-12T07:38:51.407Z,20.87
2023-02-12T07:41:23.025Z,20.80
2023-02-12T07:43:59.301Z,21.83
2023-02-12T07:46:31.170Z,23.17
2023-02-12T07:49:01.417Z,19.67
2023-02-12T07:51:28.876Z,24.60
2023-02-12T07:53:56.116Z,23.27
2023-02-12T07:56:30.692Z,24.67
2023-02-12T07:58:59.133Z,23.57
2023-02-12T08:01:33.958Z,21.13
2023-02-12T08:04:08.377Z,24.93
2023-02-12T08:06:41.033Z,22.43
2023-02-12T08:09:12.080Z,26.10
2023-02-12T08:11:40.385Z,23.10
2023-02-12T08:14:08.687Z,31.40
2023-02-12T08:16:41.960Z,31.03
2023-02-12T08:19:17.929Z,29.47
2023-02-12T08:21:51.457Z,30.27
2023-02-12T08:24:18.372Z,28.40
2023-02-12T08:26:45.364Z,30.63
2023-02-12T08:29:17.427Z,38.37
2023-02-12T08:31:48.803Z,39.53
2023-02-12T08:34:22.296Z,36.57
2023-02-12T08:36:51.511Z,36.73
2023-02-12T08:39:18.953Z,29.03
2023-02-12T08:41:46.935Z,36.53
2023-02-12T08:44:14.603Z,39.50
2023-02-12T08:46:47.294Z,35.40
2023-02-12T08:49:18.930Z,35.60
2023-02-12T08:51:49.806Z,35.40
2023-02-12T08:54:29.171Z,37.30
2023-02-12T08:57:02.224Z,49.67
2023-02-12T08:59:29.736Z,48.63
2023-02-12T09:01:56.816Z,42.00
2023-02-12T09:04:27.078Z,55.10
2023-02-12T09:06:54.910Z,44.27
2023-02-12T09:09:22.177Z,48.33
2023-02-12T09:11:49.725Z,65.47
2023-02-12T09:14:18.879Z,57.20
2023-02-12T09:16:45.856Z,56.30
2023-02-12T09:19:14.438Z,52.80
2023-02-12T09:21:42.136Z,58.87
2023-02-12T09:24:09.738Z,49.67
2023-02-12T09:26:36.730Z,51.37
2023-02-12T09:29:05.058Z,48.07
2023-02-12T09:31:33.607Z,48.40
2023-02-12T09:34:06.716Z,44.30
2023-02-12T09:36:34.009Z,44.87
2023-02-12T09:39:01.584Z,44.10
2023-02-12T09:42:17.781Z,34.53
2023-02-12T09:45:16.392Z,37.33
2023-02-12T09:48:08.323Z,36.23
2023-02-12T09:50:55.176Z,33.73
2023-02-12T09:53:28.034Z,35.47
2023-02-12T09:55:56.979Z,32.17
2023-02-12T09:58:47.266Z,33.83
2023-02-12T10:01:18.360Z,31.07
2023-02-12T10:03:48.667Z,31.13
2023-02-12T10:06:21.157Z,31.17
2023-02-12T10:09:30.880Z,29.70
2023-02-12T10:12:14.379Z,31.60
2023-02-12T10:14:59.894Z,32.87
2023-02-12T10:17:38.234Z,30.40
2023-02-12T10:21:02.391Z,23.20
2023-02-12T10:23:46.967Z,23.87
2023-02-12T10:26:29.341Z,22.63
2023-02-12T10:29:09.085Z,27.10
2023-02-12T10:31:42.159Z,27.23
2023-02-12T10:34:24.826Z,26.13
2023-02-12T10:36:58.883Z,26.00
2023-02-12T10:39:37.804Z,27.40
2023-02-12T10:42:39.089Z,23.83
2023-02-12T10:45:14.001Z,21.97
2023-02-12T10:47:41.234Z,19.70
2023-02-12T10:50:37.295Z,20.90
2023-02-12T10:53:04.064Z,23.67
2023-02-12T10:55:39.142Z,18.47
2023-02-12T10:58:21.964Z,23.10
2023-02-12T11:00:59.202Z,27.27
2023-02-12T11:03:34.356Z,25.83
2023-02-12T11:06:25.756Z,27.27
2023-02-12T11:08:53.479Z,26.73
2023-02-12T11:11:38.861Z,23.10
2023-02-12T11:14:17.921Z,24.40
2023-02-12T11:16:54.569Z,25.03
2023-02-12T11:19:32.211Z,30.13
2023-02-12T11:22:18.845Z,34.47
2023-02-12T11:24:47.089Z,31.53
2023-02-12T11:27:16.614Z,31.23
2023-02-12T11:29:45.995Z,30.57
2023-02-12T11:32:20.150Z,31.90
2023-02-12T11:35:12.477Z,29.73
2023-02-12T11:37:47.004Z,26.40
2023-02-12T11:40:21.830Z,27.03
2023-02-12T11:42:59.032Z,24.43
2023-02-12T11:45:50.464Z,34.07
2023-02-12T11:48:26.112Z,31.07
2023-02-12T11:50:57.114Z,28.10
2023-02-12T11:53:34.272Z,27.87
2023-02-12T11:56:06.978Z,26.77
2023-02-12T11:58:33.909Z,19.37
2023-02-12T12:01:05.510Z,22.87
2023-02-12T12:04:00.438Z,27.27
2023-02-12T12:06:54.168Z,27.37
2023-02-12T12:09:43.732Z,25.97
2023-02-12T12:12:21.605Z,20.87
2023-02-12T12:15:19.977Z,23.73
2023-02-12T12:18:11.646Z,20.20
2023-02-12T12:20:55.189Z,22.97
2023-02-12T12:23:44.110Z,21.30
2023-02-12T12:26:25.423Z,20.67
2023-02-12T12:29:16.793Z,22.33
2023-02-12T12:31:50.463Z,22.20
2023-02-12T12:34:24.355Z,25.87
2023-02-12T12:37:15.626Z,30.20
2023-02-12T12:40:12.640Z,27.00
2023-02-12T12:42:55.184Z,28.53
2023-02-12T12:45:41.841Z,22.60
2023-02-12T12:48:47.986Z,17.47
2023-02-12T12:51:51.858Z,19.00
2023-02-12T12:54:38.059Z,17.00
2023-02-12T12:57:36.704Z,21.60
2023-02-12T13:00:39.465Z,18.47
2023-02-12T13:03:37.761Z,17.53
2023-02-12T13:06:29.296Z,18.10
2023-02-12T13:09:25.798Z,23.87
2023-02-12T13:12:40.270Z,21.60
2023-02-12T13:15:39.493Z,16.30
2023-02-12T13:18:49.840Z,17.57
2023-02-12T13:21:38.453Z,19.67
2023-02-12T13:24:32.492Z,20.90
2023-02-12T13:27:05.793Z,16.83
2023-02-12T13:29:59.591Z,15.50
2023-02-12T13:32:32.168Z,20.30
2023-02-12T13:35:00.631Z,14.67
2023-02-12T13:37:41.116Z,15.80
2023-02-12T13:40:15.264Z,17.20
2023-02-12T13:43:19.876Z,13.63
2023-02-12T13:46:20.039Z,10.13
2023-02-12T13:49:12.703Z,12.43
2023-02-12T13:51:57.100Z,13.00
2023-02-12T13:54:42.251Z,10.23
2023-02-12T13:57:16.107Z,11.47
2023-02-12T13:59:49.211Z,14.43
2023-02-12T14:02:33.941Z,11.53
2023-02-12T14:05:18.701Z,15.23
2023-02-12T14:07:55.362Z,12.20
2023-02-12T14:10:42.357Z,15.20
2023-02-12T14:13:22.506Z,14.30
2023-02-12T14:15:57.884Z,13.97
2023-02-12T14:18:31.793Z,13.87
2023-02-12T14:21:13.685Z,13.87
2023-02-12T14:23:42.807Z,12.60
2023-02-12T14:26:15.207Z,13.67
2023-02-12T14:28:50.677Z,11.93
2023-02-12T14:31:20.679Z,11.80
2023-02-12T14:34:04.762Z,12.47
2023-02-12T14:36:42.532Z,13.20
2023-02-12T14:39:21.207Z,12.37
2023-02-12T14:41:52.257Z,12.73
2023-02-12T14:44:27.281Z,11.50
2023-02-12T14:47:00.453Z,13.17
2023-02-12T14:49:48.761Z,12.10
2023-02-12T14:52:24.662Z,10.37
2023-02-12T14:54:57.507Z,12.10
2023-02-12T14:57:41.049Z,11.00
2023-02-12T15:00:16.787Z,11.63
2023-02-12T15:03:03.084Z,17.40
2023-02-12T15:05:38.162Z,13.63
2023-02-12T15:08:26.128Z,12.23
2023-02-12T15:11:16.390Z,12.80
2023-02-12T15:13:54.838Z,14.17
2023-02-12T15:16:37.631Z,11.33
2023-02-12T15:19:25.671Z,13.00
2023-02-12T15:21:54.475Z,10.00
2023-02-12T15:24:24.853Z,13.60
2023-02-12T15:26:59.305Z,10.23
2023-02-12T15:29:32.939Z,14.53
2023-02-12T15:32:07.617Z,14.13
2023-02-12T15:34:39.965Z,14.63
2023-02-12T15:37:09.654Z,10.03
2023-02-12T15:39:47.964Z,9.03
2023-02-12T15:42:35.332Z,14.40
2023-02-12T15:45:06.114Z,13.13
2023-02-12T15:47:34.566Z,10.50
2023-02-12T15:50:01.596Z,12.33
2023-02-12T15:52:35.923Z,12.70
2023-02-12T15:55:12.991Z,12.80
2023-02-12T15:57:40.571Z,13.80
2023-02-12T16:00:28.418Z,14.73
2023-02-12T16:02:55.376Z,15.47
2023-02-12T16:05:35.024Z,15.77
2023-02-12T16:08:02.411Z,11.80
2023-02-12T16:10:29.399Z,12.20
2023-02-12T16:12:56.492Z,12.07
2023-02-12T16:15:30.790Z,13.40
2023-02-12T16:17:59.718Z,15.07
2023-02-12T16:20:30.686Z,11.60
2023-02-12T16:22:58.375Z,12.47
2023-02-12T16:25:35.140Z,15.93
2023-02-12T16:28:17.795Z,11.03
2023-02-12T16:30:48.203Z,11.97
2023-02-12T16:33:40.776Z,16.07
2023-02-12T16:36:28.464Z,12.27
2023-02-12T16:39:03.956Z,11.83
2023-02-12T16:41:52.553Z,10.97
2023-02-12T16:44:29.224Z,12.07
2023-02-12T16:47:00.199Z,11.87
2023-02-12T16:49:28.091Z,15.80
2023-02-12T16:52:33.713Z,18.47
2023-02-12T16:55:00.465Z,28.50
2023-02-12T16:57:27.333Z,33.57
2023-02-12T16:59:54.149Z,31.60
2023-02-12T17:02:20.871Z,35.60
2023-02-12T17:04:47.587Z,23.50
2023-02-12T17:07:25.634Z,20.50
2023-02-12T17:09:52.369Z,13.70
2023-02-12T17:12:19.176Z,15.63
2023-02-12T17:14:46.317Z,12.70
2023-02-12T17:17:13.075Z,15.00
2023-02-12T17:19:40.157Z,12.93
2023-02-12T17:22:15.817Z,11.93
2023-02-12T17:24:42.562Z,12.30
2023-02-12T17:27:11.499Z,11.63
2023-02-12T17:29:38.218Z,13.83
2023-02-12T17:32:06.001Z,11.10
2023-02-12T17:34:46.565Z,13.10
2023-02-12T17:37:14.661Z,14.57
2023-02-12T17:39:41.354Z,13.90
2023-02-12T17:42:08.163Z,17.87
2023-02-12T17:44:34.876Z,15.80
2023-02-12T17:47:01.587Z,14.70
2023-02-12T17:49:30.137Z,18.37
2023-02-12T17:51:56.833Z,10.87
2023-02-12T17:54:23.573Z,12.70
2023-02-12T17:56:50.298Z,13.00
2023-02-12T17:59:17.071Z,15.20
2023-02-12T18:01:44.126Z,12.50
2023-02-12T18:04:11.088Z,15.10
2023-02-12T18:06:37.981Z,18.33
2023-02-12T18:09:04.913Z,11.27
2023-02-12T18:11:32.867Z,10.43
2023-02-12T18:14:00.295Z,9.50
2023-02-12T18:16:31.356Z,9.23
2023-02-12T18:18:59.873Z,11.10
2023-02-12T18:21:27.006Z,9.63
2023-02-12T18:23:54.518Z,11.60
2023-02-12T18:26:21.782Z,9.63
2023-02-12T18:28:49.371Z,9.37
2023-02-12T18:31:19.454Z,8.83
2023-02-12T18:33:46.607Z,9.80
2023-02-12T18:36:17.564Z,9.43
2023-02-12T18:38:47.164Z,7.80
2023-02-12T18:41:23.527Z,8.43
2023-02-12T18:43:50.381Z,9.00
2023-02-12T18:46:25.338Z,7.03
2023-02-12T18:48:53.298Z,8.83
2023-02-12T18:51:23.487Z,7.97
2023-02-12T18:54:02.332Z,8.00
2023-02-12T18:56:33.137Z,7.70
2023-02-12T18:59:02.714Z,9.87
2023-02-12T19:01:29.564Z,8.13
2023-02-12T19:04:00.075Z,7.80
2023-02-12T19:06:31.302Z,11.47
2023-02-12T19:09:01.667Z,9.33
2023-02-12T19:11:29.803Z,11.00
2023-02-12T19:13:57.258Z,9.03
2023-02-12T19:16:24.989Z,9.87
2023-02-12T19:18:58.925Z,11.40
2023-02-12T19:21:26.312Z,8.87
2023-02-12T19:23:55.755Z,10.33
2023-02-12T19:26:23.401Z,9.77
2023-02-12T19:28:50.265Z,9.60
2023-02-12T19:31:27.413Z,12.50
2023-02-12T19:33:58.167Z,12.30
2023-02-12T19:36:28.448Z,11.67
2023-02-12T19:38:55.508Z,13.77
2023-02-12T19:41:25.180Z,16.87
2023-02-12T19:44:01.278Z,16.43
2023-02-12T19:46:30.978Z,19.20
2023-02-12T19:49:01.544Z,18.23
2023-02-12T19:51:30.129Z,18.73
2023-02-12T19:54:06.879Z,15.30
2023-02-12T19:56:35.262Z,20.43
2023-02-12T19:59:02.229Z,21.13
2023-02-12T20:01:29.165Z,20.77
2023-02-12T20:03:57.155Z,22.00
2023-02-12T20:06:29.872Z,18.37
2023-02-12T20:08:57.048Z,22.10
2023-02-12T20:11:28.700Z,19.80
2023-02-12T20:13:56.611Z,20.90
2023-02-12T20:16:31.149Z,17.77
2023-02-12T20:19:04.075Z,14.43
2023-02-12T20:21:31.661Z,17.43
2023-02-12T20:23:59.471Z,14.27
2023-02-12T20:26:26.175Z,15.53
2023-02-12T20:28:52.951Z,15.37
2023-02-12T20:31:33.205Z,13.30
2023-02-12T20:34:04.912Z,9.63
2023-02-12T20:36:36.673Z,10.60
2023-02-12T20:39:06.263Z,8.40
2023-02-12T20:41:36.882Z,10.37
2023-02-12T20:44:11.017Z,11.47
2023-02-12T20:46:39.471Z,11.13
2023-02-12T20:49:06.972Z,7.80
2023-02-12T20:51:34.331Z,9.27
2023-02-12T20:54:02.849Z,8.73
2023-02-12T20:56:33.615Z,11.40
2023-02-12T20:59:01.225Z,8.47
2023-02-12T21:01:36.213Z,7.37
2023-02-12T21:04:10.304Z,6.80
2023-02-12T21:06:40.019Z,6.87
2023-02-12T21:09:13.147Z,6.80
2023-02-12T21:11:42.655Z,6.00
2023-02-12T21:14:26.015Z,5.73
2023-02-12T21:16:55.757Z,6.10
2023-02-12T21:19:23.745Z,5.20
2023-02-12T21:21:50.727Z,5.27
2023-02-12T21:24:24.831Z,5.43
2023-02-12T21:26:53.731Z,5.40
2023-02-12T21:29:21.433Z,5.37
2023-02-12T21:31:50.168Z,6.07
2023-02-12T21:34:23.177Z,5.87
2023-02-12T21:36:53.534Z,5.70
2023-02-12T21:39:25.930Z,6.13
2023-02-12T21:42:02.720Z,5.83
2023-02-12T21:44:32.348Z,5.77
2023-02-12T21:46:59.198Z,5.83
2023-02-12T21:49:27.894Z,6.40
2023-02-12T21:52:04.580Z,5.73
2023-02-12T21:54:31.744Z,6.63
2023-02-12T21:56:59.319Z,8.60
2023-02-12T21:59:27.481Z,6.40
2023-02-12T22:01:58.082Z,6.20
2023-02-12T22:04:25.031Z,5.73
2023-02-12T22:06:52.759Z,7.57
2023-02-12T22:09:22.006Z,7.03
2023-02-12T22:11:51.866Z,5.87
2023-02-12T22:14:19.108Z,7.17
2023-02-12T22:16:47.310Z,6.77
2023-02-12T22:19:14.286Z,5.20
2023-02-12T22:21:43.463Z,5.00
2023-02-12T22:24:15.059Z,5.63
2023-02-12T22:26:42.723Z,5.10
2023-02-12T22:29:13.149Z,5.33
2023-02-12T22:31:42.642Z,5.23
2023-02-12T22:34:17.260Z,5.00
2023-02-12T22:36:46.348Z,4.53
2023-02-12T22:39:14.214Z,5.20
2023-02-12T22:41:42.233Z,5.73
2023-02-12T22:44:11.938Z,3.97
2023-02-12T22:46:38.845Z,4.33
2023-02-12T22:49:05.621Z,4.13
2023-02-12T22:51:34.359Z,4.27
2023-02-12T22:54:01.225Z,5.13
2023-02-12T22:56:28.104Z,6.30
2023-02-12T22:59:01.120Z,4.53
2023-02-12T23:01:29.678Z,5.20
2023-02-12T23:03:57.004Z,4.80
2023-02-12T23:06:29.163Z,6.57
2023-02-12T23:08:59.662Z,5.43
2023-02-12T23:11:29.535Z,3.77
2023-02-12T23:13:58.063Z,4.00
2023-02-12T23:16:24.914Z,3.70
2023-02-12T23:18:56.962Z,3.93
2023-02-12T23:21:25.854Z,3.53
2023-02-12T23:23:52.970Z,3.50
2023-02-12T23:26:19.747Z,3.20
2023-02-12T23:28:46.567Z,3.27
2023-02-12T23:31:13.471Z,2.93
2023-02-12T23:33:40.292Z,2.97
2023-02-12T23:36:07.525Z,3.00
2023-02-12T23:38:34.250Z,2.40
2023-02-12T23:41:00.995Z,2.70
2023-02-12T23:43:27.847Z,2.80
2023-02-12T23:45:54.644Z,2.70
2023-02-12T23:48:21.366Z,2.57
2023-02-12T23:50:49.789Z,2.83
2023-02-12T23:53:18.874Z,2.70
2023-02-12T23:55:45.755Z,2.70
2023-02-12T23:58:12.509Z,2.20
